»·PEaware :: WAT169 KLAS-KSNA

WAT169 :: KLAS-KSNA

FLIGHT INFORMATION

Flight Status: Arrived
Operator:
Walker Air Transport
More flights by this operator :: More flights under this callsign
Pilot: Marty P. (27464)
Aircraft: BEECH AIRCRAFT SUPER KING AIR 350
(B350)
More flights by this aircraft type
Origin: KLAS McCarran Intl
United States
Destination: KSNA John Wayne-Orange Co
United States
More flights between these airports :: More routes between these airports
Route: +LAS V538 GFS HEC KAYOH7
File this flight plan on PilotEdge
Remarks:
Altitude:
(Current/Filed)
28,000ft
Speed:
(Current/Filed)
220kts
Departed: 18-Oct-20 07:58 PM
Arrived: 18-Oct-20 08:52 PM
Distance/Time
Traveled:
197nm/0:54
Distance/Time
To Go:
Arrived

Flight Plot

Page will automatically refresh every two minutes.

Flight plan parsing failed; only flown route is shown


Map Options




Map Legend


Flown Route
Filed Route
Departure Airport
Arrival Airport
Navaid (VOR, NDB)
Fix

Horizontal Profiles

Position Reports

Time Latitude Longitude Heading Altitude Ground
Speed
18-Oct-20 19:46 36.080910 -115.170556 89 2170ft 0kts
18-Oct-20 19:47 36.080910 -115.170556 89 2170ft 0kts
18-Oct-20 19:48 36.080910 -115.170556 89 2170ft 0kts
18-Oct-20 19:49 36.082331 -115.168754 25 2163ft 18kts
18-Oct-20 19:50 36.088158 -115.165422 24 2139ft 19kts
18-Oct-20 19:51 36.093351 -115.162452 24 2116ft 22kts
18-Oct-20 19:52 36.098725 -115.159380 24 2096ft 17kts
18-Oct-20 19:53 36.099741 -115.157990 71 2090ft 0kts
18-Oct-20 19:54 36.099836 -115.157497 93 2088ft 0kts
18-Oct-20 19:55 36.099836 -115.157497 93 2088ft 0kts
18-Oct-20 19:56 36.099836 -115.157497 93 2088ft 0kts
18-Oct-20 19:57 36.096609 -115.158199 204 2096ft 69kts
18-Oct-20 19:58 36.066936 -115.174511 201 3135ft 154kts
18-Oct-20 19:59 36.020263 -115.197247 201 4426ft 188kts
18-Oct-20 20:00 35.971415 -115.219492 201 7388ft 178kts
18-Oct-20 20:01 35.922200 -115.242082 201 9379ft 194kts
18-Oct-20 20:02 35.869969 -115.264468 201 11237ft 205kts
18-Oct-20 20:03 35.814206 -115.286725 201 14152ft 210kts
18-Oct-20 20:04 35.755071 -115.288973 172 15015ft 245kts
18-Oct-20 20:05 35.680590 -115.273087 172 15010ft 291kts
18-Oct-20 20:06 35.610918 -115.257856 172 17864ft 205kts
18-Oct-20 20:07 35.546703 -115.243244 172 18036ft 263kts
18-Oct-20 20:08 35.476424 -115.244540 233 18834ft 252kts
18-Oct-20 20:09 35.437844 -115.314393 239 19314ft 225kts
18-Oct-20 20:10 35.405823 -115.372727 239 21074ft 233kts
18-Oct-20 20:11 35.362532 -115.451449 238 21045ft 311kts
18-Oct-20 20:12 35.311452 -115.544030 238 21031ft 340kts
18-Oct-20 20:13 35.257721 -115.641127 238 21055ft 348kts
18-Oct-20 20:14 35.204565 -115.736926 238 21954ft 334kts
18-Oct-20 20:15 35.153012 -115.829593 238 23037ft 325kts
18-Oct-20 20:16 35.103101 -115.919079 237 24501ft 309kts
18-Oct-20 20:17 35.056743 -116.001970 238 26540ft 284kts
18-Oct-20 20:18 35.014207 -116.077897 237 27530ft 301kts
18-Oct-20 20:19 34.966344 -116.163095 237 28369ft 307kts
18-Oct-20 20:20 34.915052 -116.254215 237 28060ft 333kts
18-Oct-20 20:21 34.862180 -116.347898 237 27251ft 336kts
18-Oct-20 20:22 34.809904 -116.440263 237 25726ft 327kts
18-Oct-20 20:23 34.749471 -116.521546 227 24216ft 324kts
18-Oct-20 20:24 34.689352 -116.595543 227 24000ft 288kts
18-Oct-20 20:25 34.632785 -116.665004 227 23085ft 291kts
18-Oct-20 20:26 34.575550 -116.735191 226 22101ft 294kts
18-Oct-20 20:27 34.518046 -116.805445 227 21113ft 294kts
18-Oct-20 20:28 34.460282 -116.875929 227 20062ft 296kts
18-Oct-20 20:29 34.400408 -116.948848 226 18140ft 310kts
18-Oct-20 20:30 34.339062 -117.023364 227 15724ft 308kts
18-Oct-20 20:31 34.280000 -117.094940 227 13016ft 295kts
18-Oct-20 20:32 34.206507 -117.121638 189 13016ft 292kts
18-Oct-20 20:33 34.130019 -117.145750 201 12485ft 282kts
18-Oct-20 20:34 34.057988 -117.175100 201 10967ft 265kts
18-Oct-20 20:35 33.989598 -117.203058 201 9456ft 254kts
18-Oct-20 20:36 33.923621 -117.229480 201 8011ft 245kts
18-Oct-20 20:37 33.863466 -117.264927 221 8023ft 246kts
18-Oct-20 20:38 33.811016 -117.314348 221 8009ft 234kts
18-Oct-20 20:39 33.759572 -117.362679 221 8018ft 236kts
18-Oct-20 20:40 33.707573 -117.411576 221 8012ft 238kts
18-Oct-20 20:41 33.655236 -117.460799 221 8007ft 239kts
18-Oct-20 20:42 33.602639 -117.510259 221 8000ft 240kts
18-Oct-20 20:43 33.582925 -117.573828 301 7256ft 239kts
18-Oct-20 20:44 33.619235 -117.638468 317 5718ft 222kts
18-Oct-20 20:45 33.665600 -117.683311 320 4197ft 210kts
18-Oct-20 20:46 33.709104 -117.727959 302 2971ft 190kts
18-Oct-20 20:47 33.736558 -117.778240 302 1992ft 179kts
18-Oct-20 20:48 33.753375 -117.826235 259 1360ft 143kts
18-Oct-20 20:49 33.725373 -117.839783 186 1036ft 123kts
18-Oct-20 20:50 33.696513 -117.855624 207 424ft 111kts
18-Oct-20 20:51 33.675016 -117.868708 164 61ft 21kts
18-Oct-20 20:52 33.673996 -117.867800 117 61ft 10kts
18-Oct-20 20:54 33.672224 -117.867153 209 61ft 0kts

Navigation Log

Ident Type
Flight plan parsing failed, navigation log unavailable